sensor_id;sensor_type;location;lat;lon;timestamp;temperature;humidity
67817;DHT22;54614;47.576;7.524;2023-05-16T00:01:56;25.10;55.60
67817;DHT22;54614;47.576;7.524;2023-05-16T00:04:22;25.00;55.60
67817;DHT22;54614;47.576;7.524;2023-05-16T00:06:49;25.00;55.60
67817;DHT22;54614;47.576;7.524;2023-05-16T00:09:14;25.00;55.60
67817;DHT22;54614;47.576;7.524;2023-05-16T00:11:40;25.00;55.50
67817;DHT22;54614;47.576;7.524;2023-05-16T00:14:06;25.00;55.50
67817;DHT22;54614;47.576;7.524;2023-05-16T00:16:32;25.00;55.50
67817;DHT22;54614;47.576;7.524;2023-05-16T00:18:57;25.00;55.50
67817;DHT22;54614;47.576;7.524;2023-05-16T00:21:24;25.10;55.60
67817;DHT22;54614;47.576;7.524;2023-05-16T00:23:50;25.00;55.50
67817;DHT22;54614;47.576;7.524;2023-05-16T00:26:17;25.00;55.50
67817;DHT22;54614;47.576;7.524;2023-05-16T00:28:43;25.00;55.60
67817;DHT22;54614;47.576;7.524;2023-05-16T00:31:09;25.00;55.50
67817;DHT22;54614;47.576;7.524;2023-05-16T00:33:34;25.00;55.50
67817;DHT22;54614;47.576;7.524;2023-05-16T00:36:00;25.00;55.60
67817;DHT22;54614;47.576;7.524;2023-05-16T00:38:26;25.00;55.50
67817;DHT22;54614;47.576;7.524;2023-05-16T00:40:52;25.00;55.50
67817;DHT22;54614;47.576;7.524;2023-05-16T00:43:18;25.00;55.60
67817;DHT22;54614;47.576;7.524;2023-05-16T00:45:44;25.00;55.50
67817;DHT22;54614;47.576;7.524;2023-05-16T00:48:11;25.00;55.60
67817;DHT22;54614;47.576;7.524;2023-05-16T00:50:39;25.00;55.50
67817;DHT22;54614;47.576;7.524;2023-05-16T00:53:05;25.00;55.50
67817;DHT22;54614;47.576;7.524;2023-05-16T00:55:31;25.00;55.50
67817;DHT22;54614;47.576;7.524;2023-05-16T00:57:57;25.00;55.50
67817;DHT22;54614;47.576;7.524;2023-05-16T01:00:24;25.00;55.50
67817;DHT22;54614;47.576;7.524;2023-05-16T01:02:50;25.00;55.50
67817;DHT22;54614;47.576;7.524;2023-05-16T01:05:18;25.00;55.50
67817;DHT22;54614;47.576;7.524;2023-05-16T01:07:45;25.00;55.50
67817;DHT22;54614;47.576;7.524;2023-05-16T01:10:11;25.00;55.60
67817;DHT22;54614;47.576;7.524;2023-05-16T01:13:20;25.00;55.50
67817;DHT22;54614;47.576;7.524;2023-05-16T01:15:47;25.00;55.50
67817;DHT22;54614;47.576;7.524;2023-05-16T01:21:35;25.00;55.50
67817;DHT22;54614;47.576;7.524;2023-05-16T01:24:32;25.00;55.50
67817;DHT22;54614;47.576;7.524;2023-05-16T01:27:03;25.00;55.50
67817;DHT22;54614;47.576;7.524;2023-05-16T01:29:31;25.00;55.50
67817;DHT22;54614;47.576;7.524;2023-05-16T01:31:56;25.00;55.50
67817;DHT22;54614;47.576;7.524;2023-05-16T01:34:23;25.00;55.60
67817;DHT22;54614;47.576;7.524;2023-05-16T01:37:28;25.00;55.50
67817;DHT22;54614;47.576;7.524;2023-05-16T01:40:07;25.00;55.50
67817;DHT22;54614;47.576;7.524;2023-05-16T01:42:42;25.00;55.50
67817;DHT22;54614;47.576;7.524;2023-05-16T01:45:19;25.00;55.60
67817;DHT22;54614;47.576;7.524;2023-05-16T01:48:06;25.00;55.50
67817;DHT22;54614;47.576;7.524;2023-05-16T01:50:45;25.00;55.60
67817;DHT22;54614;47.576;7.524;2023-05-16T01:53:21;25.00;55.50
67817;DHT22;54614;47.576;7.524;2023-05-16T01:55:51;25.00;55.50
67817;DHT22;54614;47.576;7.524;2023-05-16T01:58:25;25.00;55.50
67817;DHT22;54614;47.576;7.524;2023-05-16T02:00:53;25.00;55.50
67817;DHT22;54614;47.576;7.524;2023-05-16T02:03:24;25.00;55.50
67817;DHT22;54614;47.576;7.524;2023-05-16T02:05:50;24.90;55.50
67817;DHT22;54614;47.576;7.524;2023-05-16T02:08:16;25.00;55.50
67817;DHT22;54614;47.576;7.524;2023-05-16T02:10:42;25.00;55.50
67817;DHT22;54614;47.576;7.524;2023-05-16T02:13:08;25.00;55.50
67817;DHT22;54614;47.576;7.524;2023-05-16T02:15:34;25.00;55.50
67817;DHT22;54614;47.576;7.524;2023-05-16T02:17:59;25.00;55.50
67817;DHT22;54614;47.576;7.524;2023-05-16T02:20:25;25.00;55.50
67817;DHT22;54614;47.576;7.524;2023-05-16T02:22:51;25.00;55.50
67817;DHT22;54614;47.576;7.524;2023-05-16T02:25:17;25.00;55.50
67817;DHT22;54614;47.576;7.524;2023-05-16T02:27:43;24.90;55.50
67817;DHT22;54614;47.576;7.524;2023-05-16T02:30:12;24.90;55.50
67817;DHT22;54614;47.576;7.524;2023-05-16T02:32:39;25.00;55.50
67817;DHT22;54614;47.576;7.524;2023-05-16T02:35:05;25.00;55.50
67817;DHT22;54614;47.576;7.524;2023-05-16T02:37:32;25.00;55.50
67817;DHT22;54614;47.576;7.524;2023-05-16T02:39:58;25.00;55.50
67817;DHT22;54614;47.576;7.524;2023-05-16T02:42:27;25.00;55.50
67817;DHT22;54614;47.576;7.524;2023-05-16T02:44:53;24.90;55.50
67817;DHT22;54614;47.576;7.524;2023-05-16T02:47:19;25.00;55.60
67817;DHT22;54614;47.576;7.524;2023-05-16T02:49:45;24.90;55.50
67817;DHT22;54614;47.576;7.524;2023-05-16T02:52:11;24.90;55.50
67817;DHT22;54614;47.576;7.524;2023-05-16T02:54:37;24.90;55.50
67817;DHT22;54614;47.576;7.524;2023-05-16T02:57:03;24.90;55.50
67817;DHT22;54614;47.576;7.524;2023-05-16T02:59:29;25.00;55.50
67817;DHT22;54614;47.576;7.524;2023-05-16T03:01:55;24.90;55.50
67817;DHT22;54614;47.576;7.524;2023-05-16T03:04:20;24.90;55.50
67817;DHT22;54614;47.576;7.524;2023-05-16T03:06:48;24.90;55.50
67817;DHT22;54614;47.576;7.524;2023-05-16T03:09:15;24.90;55.50
67817;DHT22;54614;47.576;7.524;2023-05-16T03:11:41;24.90;55.50
67817;DHT22;54614;47.576;7.524;2023-05-16T03:14:07;24.90;55.50
67817;DHT22;54614;47.576;7.524;2023-05-16T03:16:33;25.00;55.50
67817;DHT22;54614;47.576;7.524;2023-05-16T03:19:01;24.90;55.50
67817;DHT22;54614;47.576;7.524;2023-05-16T03:21:27;24.90;55.50
67817;DHT22;54614;47.576;7.524;2023-05-16T03:23:53;24.90;55.50
67817;DHT22;54614;47.576;7.524;2023-05-16T03:26:19;24.90;55.50
67817;DHT22;54614;47.576;7.524;2023-05-16T03:28:47;24.90;55.50
67817;DHT22;54614;47.576;7.524;2023-05-16T03:31:13;24.90;55.50
67817;DHT22;54614;47.576;7.524;2023-05-16T03:33:39;24.90;55.50
67817;DHT22;54614;47.576;7.524;2023-05-16T03:36:05;24.90;55.50
67817;DHT22;54614;47.576;7.524;2023-05-16T03:38:31;24.90;55.50
67817;DHT22;54614;47.576;7.524;2023-05-16T03:40:57;24.90;55.50
67817;DHT22;54614;47.576;7.524;2023-05-16T03:43:23;24.90;55.50
67817;DHT22;54614;47.576;7.524;2023-05-16T03:45:49;24.90;56.80
67817;DHT22;54614;47.576;7.524;2023-05-16T03:48:14;24.90;57.70
67817;DHT22;54614;47.576;7.524;2023-05-16T03:50:40;24.90;56.90
67817;DHT22;54614;47.576;7.524;2023-05-16T03:53:06;24.80;56.30
67817;DHT22;54614;47.576;7.524;2023-05-16T03:55:33;24.90;56.00
67817;DHT22;54614;47.576;7.524;2023-05-16T03:57:59;24.90;56.00
67817;DHT22;54614;47.576;7.524;2023-05-16T04:00:25;25.00;55.90
67817;DHT22;54614;47.576;7.524;2023-05-16T04:02:51;25.00;55.90
67817;DHT22;54614;47.576;7.524;2023-05-16T04:05:17;25.00;55.90
67817;DHT22;54614;47.576;7.524;2023-05-16T04:07:43;25.00;55.80
67817;DHT22;54614;47.576;7.524;2023-05-16T04:10:09;25.00;55.80
67817;DHT22;54614;47.576;7.524;2023-05-16T04:12:36;25.00;55.80
67817;DHT22;54614;47.576;7.524;2023-05-16T04:15:03;25.00;55.80
67817;DHT22;54614;47.576;7.524;2023-05-16T04:17:29;25.00;55.80
67817;DHT22;54614;47.576;7.524;2023-05-16T04:19:56;25.00;55.80
67817;DHT22;54614;47.576;7.524;2023-05-16T04:22:21;25.00;55.80
67817;DHT22;54614;47.576;7.524;2023-05-16T04:24:48;25.00;55.80
67817;DHT22;54614;47.576;7.524;2023-05-16T04:27:14;25.00;55.80
67817;DHT22;54614;47.576;7.524;2023-05-16T04:29:40;25.00;55.80
67817;DHT22;54614;47.576;7.524;2023-05-16T04:32:06;25.00;55.70
67817;DHT22;54614;47.576;7.524;2023-05-16T04:34:33;24.90;55.70
67817;DHT22;54614;47.576;7.524;2023-05-16T04:37:02;25.00;55.70
67817;DHT22;54614;47.576;7.524;2023-05-16T04:39:30;24.90;55.70
67817;DHT22;54614;47.576;7.524;2023-05-16T04:41:56;25.00;55.80
67817;DHT22;54614;47.576;7.524;2023-05-16T04:44:24;24.90;56.40
67817;DHT22;54614;47.576;7.524;2023-05-16T04:46:51;24.90;55.80
67817;DHT22;54614;47.576;7.524;2023-05-16T04:49:20;24.90;55.80
67817;DHT22;54614;47.576;7.524;2023-05-16T04:51:47;25.00;55.80
67817;DHT22;54614;47.576;7.524;2023-05-16T04:54:13;25.00;56.40
67817;DHT22;54614;47.576;7.524;2023-05-16T04:56:40;25.00;55.80
67817;DHT22;54614;47.576;7.524;2023-05-16T04:59:06;24.90;55.80
67817;DHT22;54614;47.576;7.524;2023-05-16T05:01:31;25.00;55.80
67817;DHT22;54614;47.576;7.524;2023-05-16T05:03:57;25.00;55.90
67817;DHT22;54614;47.576;7.524;2023-05-16T05:06:23;24.90;55.80
67817;DHT22;54614;47.576;7.524;2023-05-16T05:08:49;24.90;55.80
67817;DHT22;54614;47.576;7.524;2023-05-16T05:11:15;25.00;55.80
67817;DHT22;54614;47.576;7.524;2023-05-16T05:13:40;25.00;55.80
67817;DHT22;54614;47.576;7.524;2023-05-16T05:16:06;25.00;55.90
67817;DHT22;54614;47.576;7.524;2023-05-16T05:18:32;24.90;55.90
67817;DHT22;54614;47.576;7.524;2023-05-16T05:20:58;25.00;56.20
67817;DHT22;54614;47.576;7.524;2023-05-16T05:23:24;25.00;56.30
67817;DHT22;54614;47.576;7.524;2023-05-16T05:25:50;25.00;56.20
67817;DHT22;54614;47.576;7.524;2023-05-16T05:28:16;25.00;56.00
67817;DHT22;54614;47.576;7.524;2023-05-16T05:30:42;25.00;56.00
67817;DHT22;54614;47.576;7.524;2023-05-16T05:33:10;25.00;56.10
67817;DHT22;54614;47.576;7.524;2023-05-16T05:35:36;25.00;56.10
67817;DHT22;54614;47.576;7.524;2023-05-16T05:38:02;25.00;56.10
67817;DHT22;54614;47.576;7.524;2023-05-16T05:40:28;24.90;65.00
67817;DHT22;54614;47.576;7.524;2023-05-16T05:42:54;24.90;64.10
67817;DHT22;54614;47.576;7.524;2023-05-16T05:45:20;24.90;63.30
67817;DHT22;54614;47.576;7.524;2023-05-16T05:47:46;24.90;62.60
67817;DHT22;54614;47.576;7.524;2023-05-16T05:50:12;24.90;62.00
67817;DHT22;54614;47.576;7.524;2023-05-16T05:52:38;24.90;61.60
67817;DHT22;54614;47.576;7.524;2023-05-16T05:55:05;24.90;61.30
67817;DHT22;54614;47.576;7.524;2023-05-16T05:57:31;24.90;61.00
67817;DHT22;54614;47.576;7.524;2023-05-16T05:59:56;24.90;61.00
67817;DHT22;54614;47.576;7.524;2023-05-16T06:02:22;24.90;60.70
67817;DHT22;54614;47.576;7.524;2023-05-16T06:04:51;24.90;60.50
67817;DHT22;54614;47.576;7.524;2023-05-16T06:07:17;25.00;60.30
67817;DHT22;54614;47.576;7.524;2023-05-16T06:09:43;25.00;60.00
67817;DHT22;54614;47.576;7.524;2023-05-16T06:12:09;25.00;59.90
67817;DHT22;54614;47.576;7.524;2023-05-16T06:14:35;25.00;59.70
67817;DHT22;54614;47.576;7.524;2023-05-16T06:17:01;25.10;59.60
67817;DHT22;54614;47.576;7.524;2023-05-16T06:19:27;25.10;59.40
67817;DHT22;54614;47.576;7.524;2023-05-16T06:21:52;25.10;59.20
67817;DHT22;54614;47.576;7.524;2023-05-16T06:24:18;25.10;59.10
67817;DHT22;54614;47.576;7.524;2023-05-16T06:26:44;25.10;59.00
67817;DHT22;54614;47.576;7.524;2023-05-16T06:29:15;25.10;58.90
67817;DHT22;54614;47.576;7.524;2023-05-16T06:31:41;25.20;58.80
67817;DHT22;54614;47.576;7.524;2023-05-16T06:34:07;25.20;58.80
67817;DHT22;54614;47.576;7.524;2023-05-16T06:36:33;25.20;58.60
67817;DHT22;54614;47.576;7.524;2023-05-16T06:38:59;25.20;59.20
67817;DHT22;54614;47.576;7.524;2023-05-16T06:41:25;25.20;58.40
67817;DHT22;54614;47.576;7.524;2023-05-16T06:43:51;25.20;58.30
67817;DHT22;54614;47.576;7.524;2023-05-16T06:46:17;25.20;58.30
67817;DHT22;54614;47.576;7.524;2023-05-16T06:48:43;25.20;58.20
67817;DHT22;54614;47.576;7.524;2023-05-16T06:51:08;25.20;58.10
67817;DHT22;54614;47.576;7.524;2023-05-16T06:53:34;25.20;58.00
67817;DHT22;54614;47.576;7.524;2023-05-16T06:56:01;25.20;57.90
67817;DHT22;54614;47.576;7.524;2023-05-16T06:58:26;25.20;57.70
67817;DHT22;54614;47.576;7.524;2023-05-16T07:00:52;25.20;57.30
67817;DHT22;54614;47.576;7.524;2023-05-16T07:03:18;25.20;57.10
67817;DHT22;54614;47.576;7.524;2023-05-16T07:05:44;25.30;56.60
67817;DHT22;54614;47.576;7.524;2023-05-16T07:08:10;25.40;56.40
67817;DHT22;54614;47.576;7.524;2023-05-16T07:10:39;25.40;56.20
67817;DHT22;54614;47.576;7.524;2023-05-16T07:13:06;25.40;56.10
67817;DHT22;54614;47.576;7.524;2023-05-16T07:15:31;25.40;56.20
67817;DHT22;54614;47.576;7.524;2023-05-16T07:17:57;25.40;56.00
67817;DHT22;54614;47.576;7.524;2023-05-16T07:20:23;25.40;55.90
67817;DHT22;54614;47.576;7.524;2023-05-16T07:22:49;25.40;55.90
67817;DHT22;54614;47.576;7.524;2023-05-16T07:25:15;25.40;55.90
67817;DHT22;54614;47.576;7.524;2023-05-16T07:27:42;25.30;55.80
67817;DHT22;54614;47.576;7.524;2023-05-16T07:30:10;25.40;55.90
67817;DHT22;54614;47.576;7.524;2023-05-16T07:32:37;25.40;55.90
67817;DHT22;54614;47.576;7.524;2023-05-16T07:35:04;25.30;55.80
67817;DHT22;54614;47.576;7.524;2023-05-16T07:37:30;25.30;55.80
67817;DHT22;54614;47.576;7.524;2023-05-16T07:39:56;25.30;55.80
67817;DHT22;54614;47.576;7.524;2023-05-16T07:42:21;25.30;55.80
67817;DHT22;54614;47.576;7.524;2023-05-16T07:44:47;25.30;55.80
67817;DHT22;54614;47.576;7.524;2023-05-16T07:47:13;25.30;55.80
67817;DHT22;54614;47.576;7.524;2023-05-16T07:49:39;25.20;55.70
67817;DHT22;54614;47.576;7.524;2023-05-16T07:52:05;25.20;55.70
67817;DHT22;54614;47.576;7.524;2023-05-16T07:54:33;25.30;55.80
67817;DHT22;54614;47.576;7.524;2023-05-16T07:56:59;25.30;55.80
67817;DHT22;54614;47.576;7.524;2023-05-16T07:59:25;25.20;55.70
67817;DHT22;54614;47.576;7.524;2023-05-16T08:01:52;25.20;55.70
67817;DHT22;54614;47.576;7.524;2023-05-16T08:04:19;25.20;55.70
67817;DHT22;54614;47.576;7.524;2023-05-16T08:06:45;25.20;55.70
67817;DHT22;54614;47.576;7.524;2023-05-16T08:09:11;25.20;56.30
67817;DHT22;54614;47.576;7.524;2023-05-16T08:11:37;25.20;55.70
67817;DHT22;54614;47.576;7.524;2023-05-16T08:14:04;25.20;55.70
67817;DHT22;54614;47.576;7.524;2023-05-16T08:16:30;25.20;55.70
67817;DHT22;54614;47.576;7.524;2023-05-16T08:18:56;25.20;55.70
67817;DHT22;54614;47.576;7.524;2023-05-16T08:21:22;25.20;55.70
67817;DHT22;54614;47.576;7.524;2023-05-16T08:23:48;25.20;55.70
67817;DHT22;54614;47.576;7.524;2023-05-16T08:26:14;25.10;55.60
67817;DHT22;54614;47.576;7.524;2023-05-16T08:28:40;25.10;55.60
67817;DHT22;54614;47.576;7.524;2023-05-16T08:31:06;25.20;55.70
67817;DHT22;54614;47.576;7.524;2023-05-16T08:33:32;25.10;55.60
67817;DHT22;54614;47.576;7.524;2023-05-16T08:35:58;25.10;55.70
67817;DHT22;54614;47.576;7.524;2023-05-16T08:38:25;25.10;55.60
67817;DHT22;54614;47.576;7.524;2023-05-16T08:40:51;25.10;55.70
67817;DHT22;54614;47.576;7.524;2023-05-16T08:43:17;25.10;55.70
67817;DHT22;54614;47.576;7.524;2023-05-16T08:45:43;25.10;55.70
67817;DHT22;54614;47.576;7.524;2023-05-16T08:48:10;25.10;55.70
67817;DHT22;54614;47.576;7.524;2023-05-16T08:50:38;25.10;55.70
67817;DHT22;54614;47.576;7.524;2023-05-16T08:53:06;25.10;55.70
67817;DHT22;54614;47.576;7.524;2023-05-16T08:55:35;25.10;55.70
67817;DHT22;54614;47.576;7.524;2023-05-16T08:58:01;25.10;55.70
67817;DHT22;54614;47.576;7.524;2023-05-16T09:00:28;25.10;55.70
67817;DHT22;54614;47.576;7.524;2023-05-16T09:02:54;25.10;55.70
67817;DHT22;54614;47.576;7.524;2023-05-16T09:05:21;25.10;55.70
67817;DHT22;54614;47.576;7.524;2023-05-16T09:07:48;25.00;55.70
67817;DHT22;54614;47.576;7.524;2023-05-16T09:10:14;25.10;55.70
67817;DHT22;54614;47.576;7.524;2023-05-16T09:12:41;25.00;55.70
67817;DHT22;54614;47.576;7.524;2023-05-16T09:15:08;25.00;55.70
67817;DHT22;54614;47.576;7.524;2023-05-16T09:17:44;25.00;55.70
67817;DHT22;54614;47.576;7.524;2023-05-16T09:20:15;25.00;55.70
67817;DHT22;54614;47.576;7.524;2023-05-16T09:22:56;25.00;55.70
67817;DHT22;54614;47.576;7.524;2023-05-16T09:25:25;25.00;55.70
67817;DHT22;54614;47.576;7.524;2023-05-16T09:27:53;25.00;55.70
67817;DHT22;54614;47.576;7.524;2023-05-16T09:30:22;25.00;55.70
67817;DHT22;54614;47.576;7.524;2023-05-16T09:32:52;25.00;55.70
67817;DHT22;54614;47.576;7.524;2023-05-16T09:35:22;25.00;55.70
67817;DHT22;54614;47.576;7.524;2023-05-16T09:37:48;25.00;55.70
67817;DHT22;54614;47.576;7.524;2023-05-16T09:40:20;25.00;55.70
67817;DHT22;54614;47.576;7.524;2023-05-16T09:43:02;25.00;55.70
67817;DHT22;54614;47.576;7.524;2023-05-16T09:45:30;25.00;55.70
67817;DHT22;54614;47.576;7.524;2023-05-16T09:48:07;25.00;55.70
67817;DHT22;54614;47.576;7.524;2023-05-16T09:50:36;25.00;55.70
67817;DHT22;54614;47.576;7.524;2023-05-16T09:53:03;25.00;55.70
67817;DHT22;54614;47.576;7.524;2023-05-16T09:55:30;25.00;55.70
67817;DHT22;54614;47.576;7.524;2023-05-16T09:57:57;25.00;55.70
67817;DHT22;54614;47.576;7.524;2023-05-16T10:00:31;25.00;55.70
67817;DHT22;54614;47.576;7.524;2023-05-16T10:02:59;25.00;55.70
67817;DHT22;54614;47.576;7.524;2023-05-16T10:05:27;25.00;55.70
67817;DHT22;54614;47.576;7.524;2023-05-16T10:07:56;24.90;55.70
67817;DHT22;54614;47.576;7.524;2023-05-16T10:10:23;25.00;55.70
67817;DHT22;54614;47.576;7.524;2023-05-16T10:12:50;25.00;56.30
67817;DHT22;54614;47.576;7.524;2023-05-16T10:15:17;25.00;55.70
67817;DHT22;54614;47.576;7.524;2023-05-16T10:17:50;25.00;55.70
67817;DHT22;54614;47.576;7.524;2023-05-16T10:20:18;25.00;55.70
67817;DHT22;54614;47.576;7.524;2023-05-16T10:22:46;25.00;55.70
67817;DHT22;54614;47.576;7.524;2023-05-16T10:27:55;24.90;55.70
67817;DHT22;54614;47.576;7.524;2023-05-16T10:30:22;25.00;55.70
67817;DHT22;54614;47.576;7.524;2023-05-16T10:32:49;25.00;55.70
67817;DHT22;54614;47.576;7.524;2023-05-16T10:35:16;25.00;55.70
67817;DHT22;54614;47.576;7.524;2023-05-16T10:37:42;24.90;55.70
67817;DHT22;54614;47.576;7.524;2023-05-16T10:40:09;24.90;55.70
67817;DHT22;54614;47.576;7.524;2023-05-16T10:42:36;24.90;55.70
67817;DHT22;54614;47.576;7.524;2023-05-16T10:45:18;24.90;55.70
67817;DHT22;54614;47.576;7.524;2023-05-16T10:47:59;24.90;55.70
67817;DHT22;54614;47.576;7.524;2023-05-16T10:50:50;24.90;55.70
67817;DHT22;54614;47.576;7.524;2023-05-16T10:53:32;24.90;55.60
67817;DHT22;54614;47.576;7.524;2023-05-16T11:01:29;24.90;55.70
67817;DHT22;54614;47.576;7.524;2023-05-16T11:04:02;24.90;55.70
67817;DHT22;54614;47.576;7.524;2023-05-16T11:11:59;24.90;55.70
67817;DHT22;54614;47.576;7.524;2023-05-16T11:17:00;24.90;55.60
67817;DHT22;54614;47.576;7.524;2023-05-16T11:22:25;24.90;55.70
67817;DHT22;54614;47.576;7.524;2023-05-16T11:25:01;24.90;55.70
67817;DHT22;54614;47.576;7.524;2023-05-16T11:27:36;24.90;55.70
67817;DHT22;54614;47.576;7.524;2023-05-16T11:30:14;24.90;55.70
67817;DHT22;54614;47.576;7.524;2023-05-16T11:32:43;24.90;55.70
67817;DHT22;54614;47.576;7.524;2023-05-16T11:35:12;24.80;55.60
67817;DHT22;54614;47.576;7.524;2023-05-16T11:37:39;24.80;55.60
67817;DHT22;54614;47.576;7.524;2023-05-16T11:40:08;24.90;55.60
67817;DHT22;54614;47.576;7.524;2023-05-16T11:42:43;24.80;55.60
67817;DHT22;54614;47.576;7.524;2023-05-16T11:45:13;24.90;55.60
67817;DHT22;54614;47.576;7.524;2023-05-16T11:47:42;24.80;55.60
67817;DHT22;54614;47.576;7.524;2023-05-16T11:50:13;24.90;55.60
67817;DHT22;54614;47.576;7.524;2023-05-16T11:52:50;24.80;55.60
67817;DHT22;54614;47.576;7.524;2023-05-16T11:55:20;24.80;55.60
67817;DHT22;54614;47.576;7.524;2023-05-16T11:57:50;24.80;55.60
67817;DHT22;54614;47.576;7.524;2023-05-16T12:00:18;24.80;55.60
67817;DHT22;54614;47.576;7.524;2023-05-16T12:02:47;24.80;55.60
67817;DHT22;54614;47.576;7.524;2023-05-16T12:05:17;24.80;55.60
67817;DHT22;54614;47.576;7.524;2023-05-16T12:07:45;24.80;55.60
67817;DHT22;54614;47.576;7.524;2023-05-16T12:10:13;24.80;55.60
67817;DHT22;54614;47.576;7.524;2023-05-16T12:12:46;24.80;55.60
67817;DHT22;54614;47.576;7.524;2023-05-16T12:15:17;24.80;55.60
67817;DHT22;54614;47.576;7.524;2023-05-16T12:17:44;24.80;55.60
67817;DHT22;54614;47.576;7.524;2023-05-16T12:20:11;24.80;55.60
67817;DHT22;54614;47.576;7.524;2023-05-16T12:22:39;24.80;55.60
67817;DHT22;54614;47.576;7.524;2023-05-16T12:25:35;24.80;55.60
67817;DHT22;54614;47.576;7.524;2023-05-16T12:28:06;24.80;55.60
67817;DHT22;54614;47.576;7.524;2023-05-16T12:30:33;24.80;55.60
67817;DHT22;54614;47.576;7.524;2023-05-16T12:35:31;24.80;55.60
67817;DHT22;54614;47.576;7.524;2023-05-16T12:37:59;24.80;55.60
67817;DHT22;54614;47.576;7.524;2023-05-16T12:40:28;24.80;55.60
67817;DHT22;54614;47.576;7.524;2023-05-16T12:42:54;24.80;55.60
67817;DHT22;54614;47.576;7.524;2023-05-16T12:45:21;24.80;55.60
67817;DHT22;54614;47.576;7.524;2023-05-16T12:47:48;24.80;55.60
67817;DHT22;54614;47.576;7.524;2023-05-16T12:50:15;24.80;55.60
67817;DHT22;54614;47.576;7.524;2023-05-16T12:52:51;24.80;55.60
67817;DHT22;54614;47.576;7.524;2023-05-16T12:55:20;24.80;55.60
67817;DHT22;54614;47.576;7.524;2023-05-16T12:57:48;24.80;55.60
67817;DHT22;54614;47.576;7.524;2023-05-16T13:00:17;24.80;55.60
67817;DHT22;54614;47.576;7.524;2023-05-16T13:02:44;24.80;55.60
67817;DHT22;54614;47.576;7.524;2023-05-16T13:05:11;24.80;55.60
67817;DHT22;54614;47.576;7.524;2023-05-16T13:07:38;24.80;55.60
67817;DHT22;54614;47.576;7.524;2023-05-16T13:10:09;24.80;55.60
67817;DHT22;54614;47.576;7.524;2023-05-16T13:12:37;24.80;55.60
67817;DHT22;54614;47.576;7.524;2023-05-16T13:15:07;24.80;55.60
67817;DHT22;54614;47.576;7.524;2023-05-16T13:17:35;24.80;55.60
67817;DHT22;54614;47.576;7.524;2023-05-16T13:20:02;24.80;55.60
67817;DHT22;54614;47.576;7.524;2023-05-16T13:22:33;24.70;55.50
67817;DHT22;54614;47.576;7.524;2023-05-16T13:24:58;24.80;55.60
67817;DHT22;54614;47.576;7.524;2023-05-16T13:27:25;24.80;55.50
67817;DHT22;54614;47.576;7.524;2023-05-16T13:29:50;24.80;55.60
67817;DHT22;54614;47.576;7.524;2023-05-16T13:32:16;24.80;55.60
67817;DHT22;54614;47.576;7.524;2023-05-16T13:34:43;24.80;55.50
67817;DHT22;54614;47.576;7.524;2023-05-16T13:37:09;24.80;55.60
67817;DHT22;54614;47.576;7.524;2023-05-16T13:39:35;24.80;55.50
67817;DHT22;54614;47.576;7.524;2023-05-16T13:42:00;24.70;55.50
67817;DHT22;54614;47.576;7.524;2023-05-16T13:44:27;24.80;55.60
67817;DHT22;54614;47.576;7.524;2023-05-16T13:46:53;24.70;55.50
67817;DHT22;54614;47.576;7.524;2023-05-16T13:49:21;24.80;55.60
67817;DHT22;54614;47.576;7.524;2023-05-16T13:51:48;24.80;55.50
67817;DHT22;54614;47.576;7.524;2023-05-16T13:54:14;24.80;55.50
67817;DHT22;54614;47.576;7.524;2023-05-16T13:56:40;24.80;55.50
67817;DHT22;54614;47.576;7.524;2023-05-16T13:59:06;24.70;55.40
67817;DHT22;54614;47.576;7.524;2023-05-16T14:01:31;24.80;55.50
67817;DHT22;54614;47.576;7.524;2023-05-16T14:03:57;24.80;55.50
67817;DHT22;54614;47.576;7.524;2023-05-16T14:06:23;24.80;55.60
67817;DHT22;54614;47.576;7.524;2023-05-16T14:08:49;24.70;55.50
67817;DHT22;54614;47.576;7.524;2023-05-16T14:11:14;24.70;55.50
67817;DHT22;54614;47.576;7.524;2023-05-16T14:13:40;24.70;55.50
67817;DHT22;54614;47.576;7.524;2023-05-16T14:16:06;24.80;55.50
67817;DHT22;54614;47.576;7.524;2023-05-16T14:18:32;24.70;55.40
67817;DHT22;54614;47.576;7.524;2023-05-16T14:20:58;24.80;55.40
67817;DHT22;54614;47.576;7.524;2023-05-16T14:23:23;24.80;55.40
67817;DHT22;54614;47.576;7.524;2023-05-16T14:25:49;24.80;55.40
67817;DHT22;54614;47.576;7.524;2023-05-16T14:28:15;24.80;55.30
67817;DHT22;54614;47.576;7.524;2023-05-16T14:30:41;24.70;55.30
67817;DHT22;54614;47.576;7.524;2023-05-16T14:33:07;24.80;55.30
67817;DHT22;54614;47.576;7.524;2023-05-16T14:35:33;24.80;55.40
67817;DHT22;54614;47.576;7.524;2023-05-16T14:37:59;24.80;55.30
67817;DHT22;54614;47.576;7.524;2023-05-16T14:40:24;24.80;55.90
67817;DHT22;54614;47.576;7.524;2023-05-16T14:42:50;24.80;55.40
67817;DHT22;54614;47.576;7.524;2023-05-16T14:45:16;24.80;55.30
67817;DHT22;54614;47.576;7.524;2023-05-16T14:47:42;24.80;55.30
67817;DHT22;54614;47.576;7.524;2023-05-16T14:50:08;24.80;55.30
67817;DHT22;54614;47.576;7.524;2023-05-16T14:52:38;24.80;55.30
67817;DHT22;54614;47.576;7.524;2023-05-16T14:55:04;24.70;55.30
67817;DHT22;54614;47.576;7.524;2023-05-16T14:57:31;24.80;55.40
67817;DHT22;54614;47.576;7.524;2023-05-16T14:59:57;24.80;56.00
67817;DHT22;54614;47.576;7.524;2023-05-16T15:02:23;24.80;55.30
67817;DHT22;54614;47.576;7.524;2023-05-16T15:04:51;24.80;55.40
67817;DHT22;54614;47.576;7.524;2023-05-16T15:07:17;24.70;55.30
67817;DHT22;54614;47.576;7.524;2023-05-16T15:09:43;24.80;55.40
67817;DHT22;54614;47.576;7.524;2023-05-16T15:12:09;24.70;55.30
67817;DHT22;54614;47.576;7.524;2023-05-16T15:14:35;24.70;55.30
67817;DHT22;54614;47.576;7.524;2023-05-16T15:17:00;24.70;55.30
67817;DHT22;54614;47.576;7.524;2023-05-16T15:19:26;24.70;55.30
67817;DHT22;54614;47.576;7.524;2023-05-16T15:21:52;24.70;55.30
67817;DHT22;54614;47.576;7.524;2023-05-16T15:24:18;24.70;55.30
67817;DHT22;54614;47.576;7.524;2023-05-16T15:26:43;24.70;55.30
67817;DHT22;54614;47.576;7.524;2023-05-16T15:29:09;24.70;55.30
67817;DHT22;54614;47.576;7.524;2023-05-16T15:31:35;24.70;55.30
67817;DHT22;54614;47.576;7.524;2023-05-16T15:34:01;24.70;55.30
67817;DHT22;54614;47.576;7.524;2023-05-16T15:36:27;24.70;55.30
67817;DHT22;54614;47.576;7.524;2023-05-16T15:38:53;24.80;55.30
67817;DHT22;54614;47.576;7.524;2023-05-16T15:41:19;24.80;55.30
67817;DHT22;54614;47.576;7.524;2023-05-16T15:43:45;24.80;55.20
67817;DHT22;54614;47.576;7.524;2023-05-16T15:46:11;24.80;55.30
67817;DHT22;54614;47.576;7.524;2023-05-16T15:48:37;24.80;55.50
67817;DHT22;54614;47.576;7.524;2023-05-16T15:51:11;24.80;55.40
67817;DHT22;54614;47.576;7.524;2023-05-16T15:53:38;24.80;55.30
67817;DHT22;54614;47.576;7.524;2023-05-16T15:56:04;24.80;55.40
67817;DHT22;54614;47.576;7.524;2023-05-16T15:58:30;24.80;55.40